createdAt,value
2023-03-06T00:01:19.848Z,2.77
2023-03-06T00:03:48.744Z,2.73
2023-03-06T00:06:17.462Z,2.71
2023-03-06T00:08:46.142Z,2.72
2023-03-06T00:11:15.517Z,2.69
2023-03-06T00:13:44.190Z,2.67
2023-03-06T00:16:14.318Z,2.72
2023-03-06T00:18:44.120Z,2.73
2023-03-06T00:21:12.665Z,2.74
2023-03-06T00:23:41.364Z,2.76
2023-03-06T00:26:11.031Z,2.73
2023-03-06T00:28:41.831Z,2.71
2023-03-06T00:31:11.327Z,2.75
2023-03-06T00:33:43.274Z,2.75
2023-03-06T00:36:12.473Z,2.77
2023-03-06T00:38:42.902Z,2.79
2023-03-06T00:41:12.437Z,2.78
2023-03-06T00:43:41.319Z,2.78
2023-03-06T00:46:10.045Z,2.78
2023-03-06T00:48:40.290Z,2.77
2023-03-06T00:51:08.877Z,2.74
2023-03-06T00:53:37.513Z,2.75
2023-03-06T00:56:08.992Z,2.76
2023-03-06T00:58:38.219Z,2.76
2023-03-06T01:01:07.105Z,2.77
2023-03-06T01:03:35.774Z,2.78
2023-03-06T01:06:06.020Z,2.77
2023-03-06T01:08:37.263Z,2.77
2023-03-06T01:11:06.102Z,2.78
2023-03-06T01:13:34.848Z,2.78
2023-03-06T01:16:11.456Z,2.77
2023-03-06T01:18:40.309Z,2.75
2023-03-06T01:21:10.384Z,2.74
2023-03-06T01:23:39.057Z,2.72
2023-03-06T01:26:08.228Z,2.67
2023-03-06T01:28:39.081Z,2.65
2023-03-06T01:31:08.785Z,2.64
2023-03-06T01:33:38.102Z,2.64
2023-03-06T01:36:09.828Z,2.63
2023-03-06T01:38:38.957Z,2.61
2023-03-06T01:41:07.836Z,2.65
2023-03-06T01:43:37.894Z,2.64
2023-03-06T01:46:34.738Z,2.65
2023-03-06T01:49:07.579Z,2.66
2023-03-06T01:51:40.348Z,2.67
2023-03-06T01:54:12.643Z,2.65
2023-03-06T01:56:42.300Z,2.65
2023-03-06T01:59:11.193Z,2.66
2023-03-06T02:01:41.727Z,2.66
2023-03-06T02:04:10.999Z,2.67
2023-03-06T02:06:44.043Z,2.65
2023-03-06T02:09:14.066Z,2.62
2023-03-06T02:11:44.119Z,2.64
2023-03-06T02:14:14.042Z,2.66
2023-03-06T02:16:43.051Z,2.65
2023-03-06T02:19:30.446Z,2.66
2023-03-06T02:22:00.636Z,2.65
2023-03-06T02:24:36.566Z,2.61
2023-03-06T02:27:07.432Z,2.59
2023-03-06T02:29:36.783Z,2.60
2023-03-06T02:32:06.456Z,2.57
2023-03-06T02:34:55.983Z,2.54
2023-03-06T02:37:25.928Z,2.53
2023-03-06T02:40:00.740Z,2.52
2023-03-06T02:42:31.949Z,2.52
2023-03-06T02:45:02.895Z,2.50
2023-03-06T02:47:32.475Z,2.48
2023-03-06T02:50:01.039Z,2.48
2023-03-06T02:52:29.840Z,2.50
2023-03-06T02:54:58.441Z,2.50
2023-03-06T02:57:27.093Z,2.52
2023-03-06T02:59:57.452Z,2.52
2023-03-06T03:02:26.258Z,2.42
2023-03-06T03:04:55.095Z,2.43
2023-03-06T03:07:25.111Z,2.51
2023-03-06T03:09:56.182Z,2.50
2023-03-06T03:12:25.091Z,2.56
2023-03-06T03:14:53.833Z,2.54
2023-03-06T03:17:23.768Z,2.50
2023-03-06T03:19:52.529Z,2.49
2023-03-06T03:22:21.440Z,2.49
2023-03-06T03:24:50.092Z,2.52
2023-03-06T03:27:18.890Z,2.49
2023-03-06T03:29:47.591Z,2.48
2023-03-06T03:32:16.345Z,2.48
2023-03-06T03:34:46.394Z,2.46
2023-03-06T03:37:15.261Z,2.45
2023-03-06T03:39:44.743Z,2.46
2023-03-06T03:42:13.812Z,2.44
2023-03-06T03:44:42.387Z,2.40
2023-03-06T03:47:11.079Z,2.38
2023-03-06T03:49:40.693Z,2.35
2023-03-06T03:52:10.787Z,2.34
2023-03-06T03:54:41.591Z,2.31
2023-03-06T03:57:10.231Z,2.32
2023-03-06T03:59:42.963Z,2.33
2023-03-06T04:02:28.073Z,2.27
2023-03-06T04:05:09.487Z,2.32
2023-03-06T04:07:39.835Z,2.34
2023-03-06T04:10:09.990Z,2.36
2023-03-06T04:12:39.162Z,2.37
2023-03-06T04:15:09.510Z,2.38
2023-03-06T04:17:38.911Z,2.36
2023-03-06T04:20:12.922Z,2.34
2023-03-06T04:22:44.015Z,2.33
2023-03-06T04:25:13.891Z,2.32
2023-03-06T04:27:42.756Z,2.29
2023-03-06T04:30:13.716Z,2.28
2023-03-06T04:32:42.959Z,2.32
2023-03-06T04:35:12.035Z,2.33
2023-03-06T04:37:51.657Z,2.27
2023-03-06T04:40:27.224Z,2.32
2023-03-06T04:42:56.654Z,2.26
2023-03-06T04:45:26.045Z,2.28
2023-03-06T04:47:55.050Z,2.30
2023-03-06T04:50:24.889Z,2.27
2023-03-06T04:52:57.998Z,2.24
2023-03-06T04:55:27.084Z,2.20
2023-03-06T04:57:55.789Z,2.21
2023-03-06T05:00:30.204Z,2.20
2023-03-06T05:02:59.823Z,2.22
2023-03-06T05:05:29.149Z,2.20
2023-03-06T05:07:59.237Z,2.19
2023-03-06T05:10:27.782Z,2.20
2023-03-06T05:12:56.520Z,2.19
2023-03-06T05:15:25.325Z,2.19
2023-03-06T05:17:53.976Z,2.19
2023-03-06T05:20:22.591Z,2.14
2023-03-06T05:22:51.264Z,2.11
2023-03-06T05:25:21.463Z,2.11
2023-03-06T05:27:50.127Z,2.10
2023-03-06T05:30:21.097Z,2.11
2023-03-06T05:32:49.985Z,2.17
2023-03-06T05:35:20.474Z,2.16
2023-03-06T05:37:49.602Z,2.14
2023-03-06T05:40:21.153Z,2.09
2023-03-06T05:42:49.791Z,2.08
2023-03-06T05:45:18.528Z,2.06
2023-03-06T05:47:47.294Z,2.07
2023-03-06T05:50:15.954Z,2.04
2023-03-06T05:52:44.584Z,2.03
2023-03-06T05:55:14.094Z,2.03
2023-03-06T05:57:44.266Z,2.01
2023-03-06T06:00:14.766Z,2.01
2023-03-06T06:02:45.584Z,2.02
2023-03-06T06:05:14.637Z,2.04
2023-03-06T06:07:43.646Z,2.01
2023-03-06T06:10:13.705Z,2.01
2023-03-06T06:12:43.952Z,1.99
2023-03-06T06:15:12.733Z,1.98
2023-03-06T06:17:41.351Z,1.98
2023-03-06T06:20:12.035Z,1.99
2023-03-06T06:22:41.223Z,2.00
2023-03-06T06:25:10.417Z,1.98
2023-03-06T06:27:39.078Z,2.01
2023-03-06T06:30:12.516Z,2.00
2023-03-06T06:32:41.590Z,2.01
2023-03-06T06:35:11.107Z,2.01
2023-03-06T06:37:39.774Z,2.02
2023-03-06T06:40:09.677Z,2.04
2023-03-06T06:42:40.150Z,2.03
2023-03-06T06:45:12.003Z,2.00
2023-03-06T06:47:41.443Z,2.02
2023-03-06T06:50:13.459Z,2.00
2023-03-06T06:52:42.401Z,2.04
2023-03-06T06:55:11.927Z,2.03
2023-03-06T06:57:41.918Z,1.99
2023-03-06T07:00:14.569Z,2.01
2023-03-06T07:02:43.320Z,2.01
2023-03-06T07:05:12.306Z,2.02
2023-03-06T07:07:40.974Z,2.03
2023-03-06T07:10:14.593Z,2.05
2023-03-06T07:12:43.619Z,2.07
2023-03-06T07:15:15.978Z,2.07
2023-03-06T07:17:44.779Z,2.07
2023-03-06T07:20:13.984Z,2.08
2023-03-06T07:22:50.797Z,2.09
2023-03-06T07:25:20.725Z,2.09
2023-03-06T07:27:53.904Z,2.12
2023-03-06T07:30:25.277Z,2.12
2023-03-06T07:32:54.920Z,2.12
2023-03-06T07:35:24.012Z,2.19
2023-03-06T07:37:52.852Z,2.20
2023-03-06T07:40:21.883Z,2.18
2023-03-06T07:42:50.842Z,2.18
2023-03-06T07:45:27.765Z,2.19
2023-03-06T07:47:56.467Z,2.22
2023-03-06T07:50:25.096Z,2.24
2023-03-06T07:52:54.125Z,2.28
2023-03-06T07:55:22.771Z,2.24
2023-03-06T07:57:52.190Z,2.30
2023-03-06T08:00:21.797Z,2.32
2023-03-06T08:02:51.732Z,2.30
2023-03-06T08:05:20.567Z,2.33
2023-03-06T08:07:49.128Z,2.37
2023-03-06T08:10:18.384Z,2.35
2023-03-06T08:12:47.045Z,2.40
2023-03-06T08:15:15.988Z,2.45
2023-03-06T08:17:44.685Z,2.49
2023-03-06T08:20:15.652Z,2.53
2023-03-06T08:22:44.332Z,2.55
2023-03-06T08:25:13.535Z,2.63
2023-03-06T08:27:42.289Z,2.63
2023-03-06T08:30:12.059Z,2.68
2023-03-06T08:32:41.029Z,2.81
2023-03-06T08:35:10.197Z,2.85
2023-03-06T08:37:40.255Z,2.81
2023-03-06T08:40:10.429Z,2.83
2023-03-06T08:42:39.292Z,2.91
2023-03-06T08:45:09.303Z,2.98
2023-03-06T08:47:38.061Z,3.00
2023-03-06T08:50:07.395Z,3.03
2023-03-06T08:52:36.171Z,3.18
2023-03-06T08:55:06.948Z,3.36
2023-03-06T08:57:35.622Z,3.44
2023-03-06T09:00:06.828Z,3.46
2023-03-06T09:02:35.799Z,3.50
2023-03-06T09:05:07.456Z,3.44
2023-03-06T09:07:36.580Z,3.48
2023-03-06T09:10:07.484Z,3.47
2023-03-06T09:12:49.444Z,3.41
2023-03-06T09:15:20.348Z,3.44
2023-03-06T09:17:49.210Z,3.48
2023-03-06T09:20:18.352Z,3.45
2023-03-06T09:22:47.114Z,3.52
2023-03-06T09:25:20.464Z,3.58
2023-03-06T09:27:58.246Z,3.55
2023-03-06T09:30:30.720Z,3.50
2023-03-06T09:32:59.437Z,3.31
2023-03-06T09:35:28.089Z,3.28
2023-03-06T09:37:56.689Z,3.32
2023-03-06T09:40:35.234Z,3.32
2023-03-06T09:43:03.821Z,3.38
2023-03-06T09:45:35.347Z,3.39
2023-03-06T09:48:05.762Z,3.52
2023-03-06T09:50:38.907Z,3.52
2023-03-06T09:53:30.560Z,3.53
2023-03-06T09:56:03.410Z,3.50
2023-03-06T09:58:33.543Z,3.68
2023-03-06T10:01:05.134Z,3.78
2023-03-06T10:03:37.347Z,3.86
2023-03-06T10:06:10.505Z,3.81
2023-03-06T10:08:46.598Z,3.77
2023-03-06T10:11:21.184Z,3.71
2023-03-06T10:13:52.834Z,3.53
2023-03-06T10:16:26.964Z,3.58
2023-03-06T10:18:56.189Z,3.54
2023-03-06T10:21:43.676Z,3.56
2023-03-06T10:24:21.567Z,3.57
2023-03-06T10:26:56.383Z,3.49
2023-03-06T10:29:43.687Z,3.50
2023-03-06T10:32:34.251Z,3.46
2023-03-06T10:35:15.976Z,3.53
2023-03-06T10:37:44.697Z,3.53
2023-03-06T10:40:17.987Z,3.57
2023-03-06T10:42:49.512Z,3.63
2023-03-06T10:45:20.875Z,3.61
2023-03-06T10:47:50.099Z,3.60
2023-03-06T10:50:27.727Z,3.60
2023-03-06T10:53:05.675Z,3.66
2023-03-06T10:55:35.690Z,3.67
2023-03-06T10:58:24.893Z,3.68
2023-03-06T11:01:03.805Z,3.76
2023-03-06T11:03:32.518Z,3.75
2023-03-06T11:06:12.930Z,3.80
2023-03-06T11:08:43.993Z,3.81
2023-03-06T11:11:16.926Z,3.74
2023-03-06T11:13:58.526Z,3.80
2023-03-06T11:16:30.394Z,3.79
2023-03-06T11:19:01.312Z,3.83
2023-03-06T11:21:31.840Z,3.99
2023-03-06T11:24:05.652Z,4.13
2023-03-06T11:26:38.618Z,4.21
2023-03-06T11:29:38.417Z,3.95
2023-03-06T11:32:12.960Z,4.04
2023-03-06T11:34:46.543Z,4.11
2023-03-06T11:37:22.022Z,4.18
2023-03-06T11:39:58.069Z,4.25
2023-03-06T11:42:29.306Z,4.18
2023-03-06T11:45:17.886Z,4.14
2023-03-06T11:47:49.368Z,4.20
2023-03-06T11:50:22.655Z,4.25
2023-03-06T11:52:55.543Z,4.33
2023-03-06T11:55:33.065Z,4.33
2023-03-06T11:58:23.105Z,4.29
2023-03-06T12:00:55.510Z,4.27
2023-03-06T12:03:43.013Z,4.07
2023-03-06T12:06:19.276Z,4.14
2023-03-06T12:08:58.451Z,4.23
2023-03-06T12:11:33.151Z,4.38
2023-03-06T12:14:13.031Z,4.45
2023-03-06T12:16:51.228Z,4.41
2023-03-06T12:19:31.178Z,4.47
2023-03-06T12:22:16.809Z,4.45
2023-03-06T12:25:12.659Z,4.60
2023-03-06T12:27:47.618Z,4.56
2023-03-06T12:30:26.361Z,4.63
2023-03-06T12:33:01.557Z,4.76
2023-03-06T12:35:54.492Z,4.83
2023-03-06T12:38:57.029Z,4.77
2023-03-06T12:41:34.942Z,4.81
2023-03-06T12:44:28.424Z,4.65
2023-03-06T12:46:59.672Z,4.65
2023-03-06T12:49:33.321Z,4.77
2023-03-06T12:52:02.831Z,4.79
2023-03-06T12:54:34.404Z,4.69
2023-03-06T12:57:03.055Z,4.84
2023-03-06T12:59:44.326Z,4.88
2023-03-06T13:02:42.719Z,4.88
2023-03-06T13:05:30.821Z,5.01
2023-03-06T13:08:13.717Z,5.04
2023-03-06T13:10:43.777Z,5.00
2023-03-06T13:13:32.128Z,5.04
2023-03-06T13:16:13.375Z,5.05
2023-03-06T13:18:54.257Z,4.97
2023-03-06T13:22:08.848Z,4.91
2023-03-06T13:24:39.203Z,4.89
2023-03-06T13:27:10.379Z,4.97
2023-03-06T13:30:21.520Z,4.94
2023-03-06T13:32:52.690Z,5.08
2023-03-06T13:35:48.609Z,5.12
2023-03-06T13:38:38.382Z,5.16
2023-03-06T13:41:47.431Z,5.17
2023-03-06T13:44:46.118Z,5.14
2023-03-06T13:47:31.019Z,5.12
2023-03-06T13:50:00.280Z,5.23
2023-03-06T13:52:37.027Z,5.27
2023-03-06T13:55:14.485Z,5.19
2023-03-06T13:57:53.698Z,5.23
2023-03-06T14:00:38.780Z,5.18
2023-03-06T14:03:47.575Z,5.11
2023-03-06T14:06:42.428Z,5.11
2023-03-06T14:09:17.064Z,5.09
2023-03-06T14:11:52.960Z,5.09
2023-03-06T14:14:33.279Z,5.04
2023-03-06T14:17:05.086Z,5.04
2023-03-06T14:19:39.887Z,5.06
2023-03-06T14:22:12.984Z,5.11
2023-03-06T14:24:45.900Z,5.07
2023-03-06T14:27:19.548Z,5.04
2023-03-06T14:29:49.794Z,4.93
2023-03-06T14:32:21.275Z,4.94
2023-03-06T14:34:50.162Z,4.97
2023-03-06T14:37:22.240Z,4.95
2023-03-06T14:39:50.988Z,4.88
2023-03-06T14:42:20.994Z,4.94
2023-03-06T14:45:02.306Z,4.80
2023-03-06T14:47:33.228Z,4.87
2023-03-06T14:50:24.139Z,4.95
2023-03-06T14:52:55.497Z,4.91
2023-03-06T14:55:26.977Z,4.81
2023-03-06T14:57:59.510Z,4.89
2023-03-06T15:00:35.580Z,4.89
2023-03-06T15:03:08.560Z,4.87
2023-03-06T15:05:37.324Z,4.93
2023-03-06T15:08:08.704Z,4.89
2023-03-06T15:10:38.786Z,4.90
2023-03-06T15:13:11.897Z,4.89
2023-03-06T15:15:41.948Z,4.97
2023-03-06T15:18:30.861Z,4.81
2023-03-06T15:21:09.886Z,4.70
2023-03-06T15:23:40.339Z,4.74
2023-03-06T15:26:27.506Z,4.71
2023-03-06T15:29:07.005Z,4.63
2023-03-06T15:31:40.066Z,4.57
2023-03-06T15:34:27.525Z,4.57
2023-03-06T15:36:58.069Z,4.50
2023-03-06T15:39:38.215Z,4.35
2023-03-06T15:42:21.096Z,4.46
2023-03-06T15:44:51.120Z,4.53
2023-03-06T15:47:21.460Z,4.54
2023-03-06T15:49:52.609Z,4.55
2023-03-06T15:52:21.741Z,4.51
2023-03-06T15:54:50.679Z,4.56
2023-03-06T15:57:23.435Z,4.44
2023-03-06T15:59:52.410Z,4.29
2023-03-06T16:02:24.198Z,4.16
2023-03-06T16:04:53.069Z,4.10
2023-03-06T16:07:21.761Z,4.00
2023-03-06T16:09:50.523Z,3.93
2023-03-06T16:12:20.581Z,3.92
2023-03-06T16:14:52.504Z,3.86
2023-03-06T16:17:22.525Z,3.87
2023-03-06T16:19:51.341Z,4.05
2023-03-06T16:22:20.154Z,4.06
2023-03-06T16:24:49.645Z,4.03
2023-03-06T16:27:23.443Z,4.01
2023-03-06T16:29:52.311Z,3.99
2023-03-06T16:32:22.415Z,4.04
2023-03-06T16:34:51.403Z,3.97
2023-03-06T16:37:20.106Z,3.91
2023-03-06T16:39:48.818Z,3.98
2023-03-06T16:42:17.668Z,3.93
2023-03-06T16:44:46.386Z,3.95
2023-03-06T16:47:15.060Z,3.99
2023-03-06T16:49:45.129Z,4.01
2023-03-06T16:52:14.525Z,3.91
2023-03-06T16:54:44.753Z,3.89
2023-03-06T16:57:15.846Z,3.98
2023-03-06T16:59:45.081Z,3.90
2023-03-06T17:02:14.207Z,3.88
2023-03-06T17:04:44.172Z,3.87
2023-03-06T17:07:12.963Z,3.88
2023-03-06T17:09:41.614Z,3.82
2023-03-06T17:12:10.823Z,3.74
2023-03-06T17:14:39.597Z,3.79
2023-03-06T17:17:08.325Z,3.66
2023-03-06T17:19:37.118Z,3.65
2023-03-06T17:22:07.260Z,3.65
2023-03-06T17:24:37.412Z,3.54
2023-03-06T17:27:06.333Z,3.53
2023-03-06T17:29:34.991Z,3.53
2023-03-06T17:32:03.777Z,3.50
2023-03-06T17:34:32.554Z,3.48
2023-03-06T17:37:01.481Z,3.42
2023-03-06T17:39:35.298Z,3.22
2023-03-06T17:42:04.497Z,3.27
2023-03-06T17:44:33.488Z,3.33
2023-03-06T17:47:02.277Z,3.25
2023-03-06T17:49:30.842Z,3.17
2023-03-06T17:52:02.739Z,3.11
2023-03-06T17:54:33.171Z,3.13
2023-03-06T17:57:03.632Z,3.11
2023-03-06T17:59:35.160Z,3.10
2023-03-06T18:02:06.106Z,3.06
2023-03-06T18:04:34.905Z,3.03
2023-03-06T18:07:03.603Z,3.01
2023-03-06T18:09:34.892Z,3.00
2023-03-06T18:12:03.593Z,2.96
2023-03-06T18:14:32.236Z,3.00
2023-03-06T18:17:00.828Z,2.96
2023-03-06T18:19:31.988Z,2.88
2023-03-06T18:22:00.619Z,2.86
2023-03-06T18:24:29.332Z,2.86
2023-03-06T18:26:59.385Z,2.89
2023-03-06T18:29:28.025Z,2.89
2023-03-06T18:31:58.744Z,2.99
2023-03-06T18:34:27.518Z,2.96
2023-03-06T18:36:56.210Z,2.93
2023-03-06T18:39:24.996Z,2.91
2023-03-06T18:41:53.970Z,2.85
2023-03-06T18:44:23.993Z,2.91
2023-03-06T18:46:52.778Z,2.93
2023-03-06T18:49:22.063Z,2.97
2023-03-06T18:51:51.452Z,3.00
2023-03-06T18:54:20.203Z,2.93
2023-03-06T18:56:48.857Z,2.86
2023-03-06T18:59:20.198Z,2.88
2023-03-06T19:01:51.838Z,2.91
2023-03-06T19:04:20.587Z,2.89
2023-03-06T19:06:49.375Z,2.89
2023-03-06T19:09:18.070Z,2.86
2023-03-06T19:11:47.488Z,2.85
2023-03-06T19:14:16.340Z,2.87
2023-03-06T19:16:45.153Z,2.87
2023-03-06T19:19:15.200Z,2.81
2023-03-06T19:21:43.903Z,2.82
2023-03-06T19:24:13.919Z,2.81
2023-03-06T19:26:43.758Z,2.80
2023-03-06T19:29:12.424Z,2.78
2023-03-06T19:31:41.356Z,2.76
2023-03-06T19:34:10.054Z,2.73
2023-03-06T19:36:40.912Z,2.78
2023-03-06T19:39:10.292Z,2.77
2023-03-06T19:41:39.021Z,2.76
2023-03-06T19:44:07.683Z,2.75
2023-03-06T19:46:36.316Z,2.74
2023-03-06T19:49:11.699Z,2.70
2023-03-06T19:51:41.796Z,2.72
2023-03-06T19:54:12.139Z,2.68
2023-03-06T19:56:41.128Z,2.71
2023-03-06T19:59:10.146Z,2.66
2023-03-06T20:01:39.620Z,2.63
2023-03-06T20:04:08.344Z,2.64
2023-03-06T20:06:38.690Z,2.59
2023-03-06T20:09:09.920Z,2.60
2023-03-06T20:11:39.173Z,2.62
2023-03-06T20:14:08.885Z,2.58
2023-03-06T20:16:37.878Z,2.60
2023-03-06T20:19:06.925Z,2.60
2023-03-06T20:21:37.509Z,2.60
2023-03-06T20:24:08.438Z,2.65
2023-03-06T20:26:38.470Z,2.64
2023-03-06T20:29:07.360Z,2.67
2023-03-06T20:31:36.135Z,2.59
2023-03-06T20:34:05.466Z,2.59
2023-03-06T20:36:36.345Z,2.62
2023-03-06T20:39:07.753Z,2.58
2023-03-06T20:41:37.761Z,2.65
2023-03-06T20:44:08.324Z,2.61
2023-03-06T20:46:37.356Z,2.59
2023-03-06T20:49:06.119Z,2.59
2023-03-06T20:51:37.560Z,2.60
2023-03-06T20:54:07.308Z,2.63
2023-03-06T20:56:39.403Z,2.62
2023-03-06T20:59:08.314Z,2.64
2023-03-06T21:01:39.011Z,2.64
2023-03-06T21:04:08.600Z,2.63
2023-03-06T21:06:37.864Z,2.63
2023-03-06T21:09:07.440Z,2.63
2023-03-06T21:11:37.907Z,2.61
2023-03-06T21:14:07.032Z,2.68
2023-03-06T21:16:36.145Z,2.68
2023-03-06T21:19:05.167Z,2.61
2023-03-06T21:21:35.792Z,2.62
2023-03-06T21:24:04.701Z,2.60
2023-03-06T21:26:34.754Z,2.58
2023-03-06T21:29:05.256Z,2.56
2023-03-06T21:31:34.515Z,2.53
2023-03-06T21:34:05.187Z,2.51
2023-03-06T21:36:34.405Z,2.52
2023-03-06T21:39:06.025Z,2.51
2023-03-06T21:41:35.008Z,2.50
2023-03-06T21:44:06.570Z,2.49
2023-03-06T21:46:35.637Z,2.52
2023-03-06T21:49:05.133Z,2.51
2023-03-06T21:51:33.998Z,2.51
2023-03-06T21:54:03.112Z,2.53
2023-03-06T21:56:33.363Z,2.48
2023-03-06T21:59:02.236Z,2.45
2023-03-06T22:01:32.316Z,2.47
2023-03-06T22:04:01.228Z,2.47
2023-03-06T22:06:31.282Z,2.45
2023-03-06T22:09:00.873Z,2.49
2023-03-06T22:11:31.227Z,2.45
2023-03-06T22:14:00.071Z,2.48
2023-03-06T22:16:28.826Z,2.41
2023-03-06T22:18:59.164Z,2.45
2023-03-06T22:21:27.918Z,2.40
2023-03-06T22:23:58.634Z,2.40
2023-03-06T22:26:27.960Z,2.41
2023-03-06T22:28:56.855Z,2.40
2023-03-06T22:31:28.277Z,2.41
2023-03-06T22:33:59.490Z,2.41
2023-03-06T22:36:30.300Z,2.45
2023-03-06T22:39:00.602Z,2.39
2023-03-06T22:41:29.733Z,2.39
2023-03-06T22:43:58.495Z,2.38
2023-03-06T22:46:27.669Z,2.41
2023-03-06T22:48:59.221Z,2.38
2023-03-06T22:51:29.607Z,2.40
2023-03-06T22:53:58.584Z,2.36
2023-03-06T22:56:27.155Z,2.34
2023-03-06T22:58:57.736Z,2.32
2023-03-06T23:01:28.739Z,2.34
2023-03-06T23:04:00.437Z,2.37
2023-03-06T23:06:30.833Z,2.37
2023-03-06T23:09:01.257Z,2.37
2023-03-06T23:11:30.889Z,2.34
2023-03-06T23:14:19.217Z,2.31
2023-03-06T23:17:06.587Z,2.32
2023-03-06T23:19:55.269Z,2.29
2023-03-06T23:22:42.738Z,2.35
2023-03-06T23:25:29.684Z,2.33
2023-03-06T23:27:58.385Z,2.31
2023-03-06T23:30:27.027Z,2.35
2023-03-06T23:32:55.761Z,2.31
2023-03-06T23:35:25.943Z,2.32
2023-03-06T23:37:54.655Z,2.30
2023-03-06T23:40:23.576Z,2.28
2023-03-06T23:42:52.227Z,2.26
2023-03-06T23:45:20.868Z,2.28
2023-03-06T23:47:49.749Z,2.26
2023-03-06T23:50:18.848Z,2.26
2023-03-06T23:52:48.795Z,2.24
2023-03-06T23:55:17.582Z,2.19
2023-03-06T23:57:46.222Z,2.20
